sensor_id;sensor_type;location;lat;lon;timestamp;P1;durP1;ratioP1;P2;durP2;ratioP2
27438;SDS011;14887;51.252;7.470;2022-07-03T00:01:18;4.37;;;2.33;;
27438;SDS011;14887;51.252;7.470;2022-07-03T00:03:43;2.80;;;2.13;;
27438;SDS011;14887;51.252;7.470;2022-07-03T00:06:09;1.70;;;1.60;;
27438;SDS011;14887;51.252;7.470;2022-07-03T00:08:35;2.47;;;1.80;;
27438;SDS011;14887;51.252;7.470;2022-07-03T00:11:01;2.67;;;2.00;;
27438;SDS011;14887;51.252;7.470;2022-07-03T00:13:27;2.53;;;1.73;;
27438;SDS011;14887;51.252;7.470;2022-07-03T00:15:53;2.90;;;2.30;;
27438;SDS011;14887;51.252;7.470;2022-07-03T00:18:18;5.20;;;2.17;;
27438;SDS011;14887;51.252;7.470;2022-07-03T00:20:46;2.20;;;1.73;;
27438;SDS011;14887;51.252;7.470;2022-07-03T00:23:16;2.80;;;1.93;;
27438;SDS011;14887;51.252;7.470;2022-07-03T00:25:43;2.00;;;1.90;;
27438;SDS011;14887;51.252;7.470;2022-07-03T00:28:09;4.80;;;2.17;;
27438;SDS011;14887;51.252;7.470;2022-07-03T00:30:35;4.00;;;2.37;;
27438;SDS011;14887;51.252;7.470;2022-07-03T00:33:02;5.07;;;2.40;;
27438;SDS011;14887;51.252;7.470;2022-07-03T00:35:32;4.77;;;2.10;;
27438;SDS011;14887;51.252;7.470;2022-07-03T00:37:59;3.13;;;1.93;;
27438;SDS011;14887;51.252;7.470;2022-07-03T00:40:25;7.23;;;2.20;;
27438;SDS011;14887;51.252;7.470;2022-07-03T00:42:51;8.33;;;2.53;;
27438;SDS011;14887;51.252;7.470;2022-07-03T00:45:19;4.27;;;2.10;;
27438;SDS011;14887;51.252;7.470;2022-07-03T00:47:45;4.30;;;2.00;;
27438;SDS011;14887;51.252;7.470;2022-07-03T00:50:11;3.20;;;2.00;;
27438;SDS011;14887;51.252;7.470;2022-07-03T00:52:37;4.83;;;2.50;;
27438;SDS011;14887;51.252;7.470;2022-07-03T00:55:06;2.00;;;1.80;;
27438;SDS011;14887;51.252;7.470;2022-07-03T00:57:33;5.90;;;2.17;;
27438;SDS011;14887;51.252;7.470;2022-07-03T01:00:05;2.20;;;2.00;;
27438;SDS011;14887;51.252;7.470;2022-07-03T01:16:06;3.53;;;2.07;;
27438;SDS011;14887;51.252;7.470;2022-07-03T01:18:40;4.57;;;2.37;;
27438;SDS011;14887;51.252;7.470;2022-07-03T01:21:35;6.10;;;2.63;;
27438;SDS011;14887;51.252;7.470;2022-07-03T01:24:06;5.43;;;2.77;;
27438;SDS011;14887;51.252;7.470;2022-07-03T01:26:59;5.07;;;2.70;;
27438;SDS011;14887;51.252;7.470;2022-07-03T01:29:43;6.10;;;2.40;;
27438;SDS011;14887;51.252;7.470;2022-07-03T01:32:11;3.80;;;2.57;;
27438;SDS011;14887;51.252;7.470;2022-07-03T01:34:39;2.73;;;2.40;;
27438;SDS011;14887;51.252;7.470;2022-07-03T01:37:09;3.33;;;3.00;;
27438;SDS011;14887;51.252;7.470;2022-07-03T01:39:38;4.37;;;2.90;;
27438;SDS011;14887;51.252;7.470;2022-07-03T01:42:07;3.33;;;2.37;;
27438;SDS011;14887;51.252;7.470;2022-07-03T01:44:33;10.50;;;3.40;;
27438;SDS011;14887;51.252;7.470;2022-07-03T01:47:02;6.80;;;2.87;;
27438;SDS011;14887;51.252;7.470;2022-07-03T01:49:29;6.50;;;2.90;;
27438;SDS011;14887;51.252;7.470;2022-07-03T01:51:57;4.53;;;3.00;;
27438;SDS011;14887;51.252;7.470;2022-07-03T01:54:24;2.70;;;2.50;;
27438;SDS011;14887;51.252;7.470;2022-07-03T01:56:51;6.23;;;2.60;;
27438;SDS011;14887;51.252;7.470;2022-07-03T01:59:17;10.03;;;2.33;;
27438;SDS011;14887;51.252;7.470;2022-07-03T02:01:45;11.97;;;2.47;;
27438;SDS011;14887;51.252;7.470;2022-07-03T02:04:24;6.40;;;2.97;;
27438;SDS011;14887;51.252;7.470;2022-07-03T02:09:35;3.37;;;2.70;;
27438;SDS011;14887;51.252;7.470;2022-07-03T02:12:13;2.57;;;2.37;;
27438;SDS011;14887;51.252;7.470;2022-07-03T02:14:44;7.10;;;3.23;;
27438;SDS011;14887;51.252;7.470;2022-07-03T02:17:20;3.17;;;2.87;;
27438;SDS011;14887;51.252;7.470;2022-07-03T02:19:56;6.10;;;2.37;;
27438;SDS011;14887;51.252;7.470;2022-07-03T02:22:25;3.00;;;2.33;;
27438;SDS011;14887;51.252;7.470;2022-07-03T02:25:06;5.60;;;2.43;;
27438;SDS011;14887;51.252;7.470;2022-07-03T02:27:40;4.30;;;2.13;;
27438;SDS011;14887;51.252;7.470;2022-07-03T02:30:09;3.93;;;2.30;;
27438;SDS011;14887;51.252;7.470;2022-07-03T02:32:36;2.87;;;1.80;;
27438;SDS011;14887;51.252;7.470;2022-07-03T02:35:08;1.70;;;1.60;;
27438;SDS011;14887;51.252;7.470;2022-07-03T02:37:56;7.10;;;1.70;;
27438;SDS011;14887;51.252;7.470;2022-07-03T02:43:14;4.37;;;1.67;;
27438;SDS011;14887;51.252;7.470;2022-07-03T02:45:50;13.13;;;1.63;;
27438;SDS011;14887;51.252;7.470;2022-07-03T02:48:36;3.57;;;1.60;;
27438;SDS011;14887;51.252;7.470;2022-07-03T02:51:09;1.40;;;1.10;;
27438;SDS011;14887;51.252;7.470;2022-07-03T02:53:41;1.87;;;1.53;;
27438;SDS011;14887;51.252;7.470;2022-07-03T02:59:31;2.67;;;1.70;;
27438;SDS011;14887;51.252;7.470;2022-07-03T03:02:07;1.73;;;1.63;;
27438;SDS011;14887;51.252;7.470;2022-07-03T03:04:37;2.30;;;1.43;;
27438;SDS011;14887;51.252;7.470;2022-07-03T03:07:11;2.80;;;1.60;;
27438;SDS011;14887;51.252;7.470;2022-07-03T03:09:40;5.07;;;2.20;;
27438;SDS011;14887;51.252;7.470;2022-07-03T03:12:08;3.23;;;2.50;;
27438;SDS011;14887;51.252;7.470;2022-07-03T03:14:44;3.17;;;1.63;;
27438;SDS011;14887;51.252;7.470;2022-07-03T03:17:16;3.00;;;1.70;;
27438;SDS011;14887;51.252;7.470;2022-07-03T03:19:45;2.80;;;1.80;;
27438;SDS011;14887;51.252;7.470;2022-07-03T03:25:04;9.63;;;1.90;;
27438;SDS011;14887;51.252;7.470;2022-07-03T03:27:30;8.83;;;2.20;;
27438;SDS011;14887;51.252;7.470;2022-07-03T03:29:55;5.03;;;1.67;;
27438;SDS011;14887;51.252;7.470;2022-07-03T03:32:21;3.40;;;1.90;;
27438;SDS011;14887;51.252;7.470;2022-07-03T03:34:47;4.10;;;1.40;;
27438;SDS011;14887;51.252;7.470;2022-07-03T03:37:14;2.30;;;1.70;;
27438;SDS011;14887;51.252;7.470;2022-07-03T03:39:40;5.90;;;2.27;;
27438;SDS011;14887;51.252;7.470;2022-07-03T03:42:06;3.67;;;1.57;;
27438;SDS011;14887;51.252;7.470;2022-07-03T03:44:33;6.50;;;1.60;;
27438;SDS011;14887;51.252;7.470;2022-07-03T03:46:59;3.00;;;1.50;;
27438;SDS011;14887;51.252;7.470;2022-07-03T03:49:24;1.70;;;1.60;;
27438;SDS011;14887;51.252;7.470;2022-07-03T03:51:50;12.33;;;1.57;;
27438;SDS011;14887;51.252;7.470;2022-07-03T03:54:17;3.63;;;1.70;;
27438;SDS011;14887;51.252;7.470;2022-07-03T03:56:43;5.70;;;1.60;;
27438;SDS011;14887;51.252;7.470;2022-07-03T03:59:08;2.57;;;1.80;;
27438;SDS011;14887;51.252;7.470;2022-07-03T04:01:34;2.43;;;1.60;;
27438;SDS011;14887;51.252;7.470;2022-07-03T04:03:59;5.93;;;2.00;;
27438;SDS011;14887;51.252;7.470;2022-07-03T04:06:25;1.57;;;1.37;;
27438;SDS011;14887;51.252;7.470;2022-07-03T04:08:51;1.70;;;1.60;;
27438;SDS011;14887;51.252;7.470;2022-07-03T04:11:16;3.00;;;1.63;;
27438;SDS011;14887;51.252;7.470;2022-07-03T04:13:42;6.63;;;1.27;;
27438;SDS011;14887;51.252;7.470;2022-07-03T04:16:08;4.60;;;1.73;;
27438;SDS011;14887;51.252;7.470;2022-07-03T04:18:34;1.40;;;1.23;;
27438;SDS011;14887;51.252;7.470;2022-07-03T04:21:00;1.70;;;1.53;;
27438;SDS011;14887;51.252;7.470;2022-07-03T04:23:25;1.87;;;1.50;;
27438;SDS011;14887;51.252;7.470;2022-07-03T04:25:51;2.33;;;1.40;;
27438;SDS011;14887;51.252;7.470;2022-07-03T04:28:16;3.77;;;1.43;;
27438;SDS011;14887;51.252;7.470;2022-07-03T04:30:42;3.70;;;1.13;;
27438;SDS011;14887;51.252;7.470;2022-07-03T04:33:07;1.47;;;1.37;;
27438;SDS011;14887;51.252;7.470;2022-07-03T04:35:33;3.13;;;1.47;;
27438;SDS011;14887;51.252;7.470;2022-07-03T04:37:58;9.77;;;1.40;;
27438;SDS011;14887;51.252;7.470;2022-07-03T04:40:24;2.03;;;1.27;;
27438;SDS011;14887;51.252;7.470;2022-07-03T04:42:50;1.57;;;1.47;;
27438;SDS011;14887;51.252;7.470;2022-07-03T04:45:15;2.03;;;1.57;;
27438;SDS011;14887;51.252;7.470;2022-07-03T04:47:41;2.93;;;1.63;;
27438;SDS011;14887;51.252;7.470;2022-07-03T04:50:06;5.03;;;1.63;;
27438;SDS011;14887;51.252;7.470;2022-07-03T04:52:32;1.97;;;1.10;;
27438;SDS011;14887;51.252;7.470;2022-07-03T04:54:58;2.70;;;1.43;;
27438;SDS011;14887;51.252;7.470;2022-07-03T04:57:23;6.07;;;1.27;;
27438;SDS011;14887;51.252;7.470;2022-07-03T04:59:49;1.30;;;1.20;;
27438;SDS011;14887;51.252;7.470;2022-07-03T05:02:15;5.30;;;1.50;;
27438;SDS011;14887;51.252;7.470;2022-07-03T05:04:40;7.77;;;2.10;;
27438;SDS011;14887;51.252;7.470;2022-07-03T05:07:06;1.20;;;1.10;;
27438;SDS011;14887;51.252;7.470;2022-07-03T05:09:31;2.90;;;1.43;;
27438;SDS011;14887;51.252;7.470;2022-07-03T05:11:57;3.33;;;1.73;;
27438;SDS011;14887;51.252;7.470;2022-07-03T05:14:22;1.57;;;1.30;;
27438;SDS011;14887;51.252;7.470;2022-07-03T05:16:48;2.40;;;1.50;;
27438;SDS011;14887;51.252;7.470;2022-07-03T05:19:13;1.27;;;1.00;;
27438;SDS011;14887;51.252;7.470;2022-07-03T05:21:39;2.40;;;1.40;;
27438;SDS011;14887;51.252;7.470;2022-07-03T05:24:04;5.53;;;1.00;;
27438;SDS011;14887;51.252;7.470;2022-07-03T05:26:30;12.73;;;1.80;;
27438;SDS011;14887;51.252;7.470;2022-07-03T05:28:56;1.13;;;1.03;;
27438;SDS011;14887;51.252;7.470;2022-07-03T05:31:21;3.47;;;1.60;;
27438;SDS011;14887;51.252;7.470;2022-07-03T05:33:47;5.20;;;1.77;;
27438;SDS011;14887;51.252;7.470;2022-07-03T05:36:12;2.67;;;1.40;;
27438;SDS011;14887;51.252;7.470;2022-07-03T05:38:38;3.73;;;1.60;;
27438;SDS011;14887;51.252;7.470;2022-07-03T05:41:22;1.20;;;1.10;;
27438;SDS011;14887;51.252;7.470;2022-07-03T05:43:48;1.27;;;1.17;;
27438;SDS011;14887;51.252;7.470;2022-07-03T05:46:14;2.27;;;1.60;;
27438;SDS011;14887;51.252;7.470;2022-07-03T05:48:39;7.70;;;1.27;;
27438;SDS011;14887;51.252;7.470;2022-07-03T05:51:05;2.40;;;1.20;;
27438;SDS011;14887;51.252;7.470;2022-07-03T05:53:30;5.07;;;1.33;;
27438;SDS011;14887;51.252;7.470;2022-07-03T05:55:56;1.63;;;1.53;;
27438;SDS011;14887;51.252;7.470;2022-07-03T05:58:22;2.53;;;1.20;;
27438;SDS011;14887;51.252;7.470;2022-07-03T06:00:48;3.13;;;1.30;;
27438;SDS011;14887;51.252;7.470;2022-07-03T06:03:13;6.13;;;1.50;;
27438;SDS011;14887;51.252;7.470;2022-07-03T06:05:39;1.30;;;1.20;;
27438;SDS011;14887;51.252;7.470;2022-07-03T06:08:05;4.17;;;1.70;;
27438;SDS011;14887;51.252;7.470;2022-07-03T06:10:32;2.77;;;1.60;;
27438;SDS011;14887;51.252;7.470;2022-07-03T06:12:58;2.43;;;1.97;;
27438;SDS011;14887;51.252;7.470;2022-07-03T06:15:24;5.90;;;1.50;;
27438;SDS011;14887;51.252;7.470;2022-07-03T06:17:50;3.43;;;1.47;;
27438;SDS011;14887;51.252;7.470;2022-07-03T06:20:16;2.63;;;1.20;;
27438;SDS011;14887;51.252;7.470;2022-07-03T06:22:42;11.60;;;1.50;;
27438;SDS011;14887;51.252;7.470;2022-07-03T06:25:07;3.43;;;1.30;;
27438;SDS011;14887;51.252;7.470;2022-07-03T06:27:33;4.17;;;1.00;;
27438;SDS011;14887;51.252;7.470;2022-07-03T06:29:59;3.33;;;1.30;;
27438;SDS011;14887;51.252;7.470;2022-07-03T06:32:25;3.10;;;1.23;;
27438;SDS011;14887;51.252;7.470;2022-07-03T06:34:50;1.33;;;1.10;;
27438;SDS011;14887;51.252;7.470;2022-07-03T06:37:16;3.40;;;1.60;;
27438;SDS011;14887;51.252;7.470;2022-07-03T06:39:41;1.07;;;1.00;;
27438;SDS011;14887;51.252;7.470;2022-07-03T06:42:07;3.47;;;1.10;;
27438;SDS011;14887;51.252;7.470;2022-07-03T06:44:33;7.90;;;1.20;;
27438;SDS011;14887;51.252;7.470;2022-07-03T06:46:59;1.27;;;1.27;;
27438;SDS011;14887;51.252;7.470;2022-07-03T06:49:28;3.53;;;1.63;;
27438;SDS011;14887;51.252;7.470;2022-07-03T06:51:56;1.47;;;1.20;;
27438;SDS011;14887;51.252;7.470;2022-07-03T06:54:22;3.97;;;1.60;;
27438;SDS011;14887;51.252;7.470;2022-07-03T06:56:47;8.97;;;1.57;;
27438;SDS011;14887;51.252;7.470;2022-07-03T06:59:13;2.70;;;1.37;;
27438;SDS011;14887;51.252;7.470;2022-07-03T07:01:39;1.37;;;1.27;;
27438;SDS011;14887;51.252;7.470;2022-07-03T07:04:05;2.10;;;1.80;;
27438;SDS011;14887;51.252;7.470;2022-07-03T07:06:30;3.30;;;1.80;;
27438;SDS011;14887;51.252;7.470;2022-07-03T07:08:56;5.67;;;1.63;;
27438;SDS011;14887;51.252;7.470;2022-07-03T07:11:21;2.37;;;1.53;;
27438;SDS011;14887;51.252;7.470;2022-07-03T07:13:47;3.00;;;1.60;;
27438;SDS011;14887;51.252;7.470;2022-07-03T07:16:12;2.07;;;1.87;;
27438;SDS011;14887;51.252;7.470;2022-07-03T07:18:41;9.03;;;1.80;;
27438;SDS011;14887;51.252;7.470;2022-07-03T07:21:08;2.20;;;2.00;;
27438;SDS011;14887;51.252;7.470;2022-07-03T07:23:34;1.83;;;1.73;;
27438;SDS011;14887;51.252;7.470;2022-07-03T07:25:59;2.27;;;2.07;;
27438;SDS011;14887;51.252;7.470;2022-07-03T07:28:25;4.17;;;1.83;;
27438;SDS011;14887;51.252;7.470;2022-07-03T07:30:51;7.77;;;1.70;;
27438;SDS011;14887;51.252;7.470;2022-07-03T07:33:22;2.10;;;1.60;;
27438;SDS011;14887;51.252;7.470;2022-07-03T07:35:47;1.70;;;1.60;;
27438;SDS011;14887;51.252;7.470;2022-07-03T07:38:13;7.97;;;1.70;;
27438;SDS011;14887;51.252;7.470;2022-07-03T07:40:39;2.20;;;1.47;;
27438;SDS011;14887;51.252;7.470;2022-07-03T07:43:05;1.43;;;1.33;;
27438;SDS011;14887;51.252;7.470;2022-07-03T07:45:30;1.37;;;1.23;;
27438;SDS011;14887;51.252;7.470;2022-07-03T07:47:56;1.50;;;1.40;;
27438;SDS011;14887;51.252;7.470;2022-07-03T07:50:22;3.90;;;1.53;;
27438;SDS011;14887;51.252;7.470;2022-07-03T07:52:48;1.50;;;1.40;;
27438;SDS011;14887;51.252;7.470;2022-07-03T07:55:13;1.73;;;1.40;;
27438;SDS011;14887;51.252;7.470;2022-07-03T07:57:39;2.03;;;1.60;;
27438;SDS011;14887;51.252;7.470;2022-07-03T08:00:07;4.43;;;1.40;;
27438;SDS011;14887;51.252;7.470;2022-07-03T08:02:37;4.00;;;1.43;;
27438;SDS011;14887;51.252;7.470;2022-07-03T08:05:21;4.17;;;1.50;;
27438;SDS011;14887;51.252;7.470;2022-07-03T08:08:03;2.20;;;1.20;;
27438;SDS011;14887;51.252;7.470;2022-07-03T08:10:41;3.67;;;1.50;;
27438;SDS011;14887;51.252;7.470;2022-07-03T08:13:08;3.60;;;1.40;;
27438;SDS011;14887;51.252;7.470;2022-07-03T08:15:35;2.17;;;1.67;;
27438;SDS011;14887;51.252;7.470;2022-07-03T08:18:01;7.20;;;1.33;;
27438;SDS011;14887;51.252;7.470;2022-07-03T08:20:26;2.43;;;1.13;;
27438;SDS011;14887;51.252;7.470;2022-07-03T08:22:52;1.13;;;1.13;;
27438;SDS011;14887;51.252;7.470;2022-07-03T08:25:18;1.27;;;1.17;;
27438;SDS011;14887;51.252;7.470;2022-07-03T08:27:44;2.43;;;1.20;;
27438;SDS011;14887;51.252;7.470;2022-07-03T08:30:10;1.87;;;1.43;;
27438;SDS011;14887;51.252;7.470;2022-07-03T08:32:36;1.57;;;1.00;;
27438;SDS011;14887;51.252;7.470;2022-07-03T08:35:01;1.10;;;1.00;;
27438;SDS011;14887;51.252;7.470;2022-07-03T08:37:27;3.40;;;1.60;;
27438;SDS011;14887;51.252;7.470;2022-07-03T08:39:53;4.90;;;1.40;;
27438;SDS011;14887;51.252;7.470;2022-07-03T08:42:18;3.50;;;1.80;;
27438;SDS011;14887;51.252;7.470;2022-07-03T08:44:45;1.77;;;1.47;;
27438;SDS011;14887;51.252;7.470;2022-07-03T08:47:11;1.93;;;1.30;;
27438;SDS011;14887;51.252;7.470;2022-07-03T08:49:38;1.00;;;1.00;;
27438;SDS011;14887;51.252;7.470;2022-07-03T08:52:06;3.37;;;1.37;;
27438;SDS011;14887;51.252;7.470;2022-07-03T08:54:34;1.37;;;0.90;;
27438;SDS011;14887;51.252;7.470;2022-07-03T08:57:00;3.10;;;0.80;;
27438;SDS011;14887;51.252;7.470;2022-07-03T08:59:28;6.27;;;1.03;;
27438;SDS011;14887;51.252;7.470;2022-07-03T09:02:01;2.40;;;0.90;;
27438;SDS011;14887;51.252;7.470;2022-07-03T09:04:28;3.27;;;1.10;;
27438;SDS011;14887;51.252;7.470;2022-07-03T09:06:54;1.40;;;1.30;;
27438;SDS011;14887;51.252;7.470;2022-07-03T09:09:20;4.73;;;1.00;;
27438;SDS011;14887;51.252;7.470;2022-07-03T09:11:46;5.00;;;1.20;;
27438;SDS011;14887;51.252;7.470;2022-07-03T09:14:12;2.80;;;1.37;;
27438;SDS011;14887;51.252;7.470;2022-07-03T09:16:38;9.23;;;1.33;;
27438;SDS011;14887;51.252;7.470;2022-07-03T09:19:04;2.43;;;1.30;;
27438;SDS011;14887;51.252;7.470;2022-07-03T09:21:39;3.57;;;1.27;;
27438;SDS011;14887;51.252;7.470;2022-07-03T09:24:06;6.27;;;1.20;;
27438;SDS011;14887;51.252;7.470;2022-07-03T09:26:33;1.73;;;1.30;;
27438;SDS011;14887;51.252;7.470;2022-07-03T09:28:59;4.83;;;1.30;;
27438;SDS011;14887;51.252;7.470;2022-07-03T09:31:25;1.27;;;1.17;;
27438;SDS011;14887;51.252;7.470;2022-07-03T09:36:48;4.30;;;1.20;;
27438;SDS011;14887;51.252;7.470;2022-07-03T09:39:16;2.10;;;1.00;;
27438;SDS011;14887;51.252;7.470;2022-07-03T09:41:56;2.37;;;1.40;;
27438;SDS011;14887;51.252;7.470;2022-07-03T09:49:50;2.87;;;1.23;;
27438;SDS011;14887;51.252;7.470;2022-07-03T09:57:43;5.70;;;2.30;;
27438;SDS011;14887;51.252;7.470;2022-07-03T10:00:11;3.27;;;1.73;;
27438;SDS011;14887;51.252;7.470;2022-07-03T10:05:46;2.77;;;1.60;;
27438;SDS011;14887;51.252;7.470;2022-07-03T10:08:12;3.23;;;1.30;;
27438;SDS011;14887;51.252;7.470;2022-07-03T10:10:41;4.73;;;1.50;;
27438;SDS011;14887;51.252;7.470;2022-07-03T10:13:08;2.57;;;1.40;;
27438;SDS011;14887;51.252;7.470;2022-07-03T10:15:35;3.10;;;1.60;;
27438;SDS011;14887;51.252;7.470;2022-07-03T10:18:03;4.93;;;1.93;;
27438;SDS011;14887;51.252;7.470;2022-07-03T10:20:33;5.43;;;1.70;;
27438;SDS011;14887;51.252;7.470;2022-07-03T10:22:59;4.83;;;1.90;;
27438;SDS011;14887;51.252;7.470;2022-07-03T10:25:25;1.70;;;1.60;;
27438;SDS011;14887;51.252;7.470;2022-07-03T10:27:51;3.33;;;1.47;;
27438;SDS011;14887;51.252;7.470;2022-07-03T10:30:20;3.77;;;2.00;;
27438;SDS011;14887;51.252;7.470;2022-07-03T10:32:47;3.53;;;1.70;;
27438;SDS011;14887;51.252;7.470;2022-07-03T10:35:15;3.97;;;1.73;;
27438;SDS011;14887;51.252;7.470;2022-07-03T10:37:56;2.10;;;1.40;;
27438;SDS011;14887;51.252;7.470;2022-07-03T10:40:54;7.07;;;1.20;;
27438;SDS011;14887;51.252;7.470;2022-07-03T10:43:48;6.73;;;1.40;;
27438;SDS011;14887;51.252;7.470;2022-07-03T10:46:35;3.90;;;1.50;;
27438;SDS011;14887;51.252;7.470;2022-07-03T10:54:49;6.83;;;1.97;;
27438;SDS011;14887;51.252;7.470;2022-07-03T10:57:16;1.30;;;1.20;;
27438;SDS011;14887;51.252;7.470;2022-07-03T11:02:26;3.37;;;1.80;;
27438;SDS011;14887;51.252;7.470;2022-07-03T11:12:56;6.07;;;1.97;;
27438;SDS011;14887;51.252;7.470;2022-07-03T11:18:08;3.43;;;1.60;;
27438;SDS011;14887;51.252;7.470;2022-07-03T11:25:51;1.20;;;0.83;;
27438;SDS011;14887;51.252;7.470;2022-07-03T11:33:46;0.90;;;0.90;;
27438;SDS011;14887;51.252;7.470;2022-07-03T11:38:48;3.03;;;1.00;;
27438;SDS011;14887;51.252;7.470;2022-07-03T11:41:20;2.30;;;0.93;;
27438;SDS011;14887;51.252;7.470;2022-07-03T11:43:56;3.70;;;0.90;;
27438;SDS011;14887;51.252;7.470;2022-07-03T11:46:27;3.27;;;1.00;;
27438;SDS011;14887;51.252;7.470;2022-07-03T11:49:13;5.80;;;1.40;;
27438;SDS011;14887;51.252;7.470;2022-07-03T11:51:54;2.93;;;1.23;;
27438;SDS011;14887;51.252;7.470;2022-07-03T11:54:21;5.20;;;1.30;;
27438;SDS011;14887;51.252;7.470;2022-07-03T11:56:46;1.70;;;1.30;;
27438;SDS011;14887;51.252;7.470;2022-07-03T11:59:12;1.47;;;1.00;;
27438;SDS011;14887;51.252;7.470;2022-07-03T12:01:38;4.90;;;1.23;;
27438;SDS011;14887;51.252;7.470;2022-07-03T12:06:40;2.30;;;0.83;;
27438;SDS011;14887;51.252;7.470;2022-07-03T12:09:22;1.03;;;1.03;;
27438;SDS011;14887;51.252;7.470;2022-07-03T12:11:54;3.60;;;1.30;;
27438;SDS011;14887;51.252;7.470;2022-07-03T12:14:37;7.17;;;1.90;;
27438;SDS011;14887;51.252;7.470;2022-07-03T12:17:30;1.73;;;1.00;;
27438;SDS011;14887;51.252;7.470;2022-07-03T12:19:55;2.40;;;1.00;;
27438;SDS011;14887;51.252;7.470;2022-07-03T12:24:59;4.67;;;1.47;;
27438;SDS011;14887;51.252;7.470;2022-07-03T12:27:31;2.53;;;1.10;;
27438;SDS011;14887;51.252;7.470;2022-07-03T12:30:08;2.83;;;1.27;;
27438;SDS011;14887;51.252;7.470;2022-07-03T12:32:36;8.03;;;2.07;;
27438;SDS011;14887;51.252;7.470;2022-07-03T12:35:03;1.23;;;1.10;;
27438;SDS011;14887;51.252;7.470;2022-07-03T12:38:02;2.33;;;1.03;;
27438;SDS011;14887;51.252;7.470;2022-07-03T12:40:22;6.27;;;1.30;;
27438;SDS011;14887;51.252;7.470;2022-07-03T12:45:18;3.23;;;1.50;;
27438;SDS011;14887;51.252;7.470;2022-07-03T12:47:45;1.43;;;1.27;;
27438;SDS011;14887;51.252;7.470;2022-07-03T12:50:21;4.93;;;1.10;;
27438;SDS011;14887;51.252;7.470;2022-07-03T12:52:56;5.83;;;1.53;;
27438;SDS011;14887;51.252;7.470;2022-07-03T12:55:23;1.70;;;1.10;;
27438;SDS011;14887;51.252;7.470;2022-07-03T12:57:50;4.17;;;1.50;;
27438;SDS011;14887;51.252;7.470;2022-07-03T13:00:50;1.67;;;1.27;;
27438;SDS011;14887;51.252;7.470;2022-07-03T13:03:29;1.03;;;1.03;;
27438;SDS011;14887;51.252;7.470;2022-07-03T13:05:56;2.37;;;1.30;;
27438;SDS011;14887;51.252;7.470;2022-07-03T13:08:22;5.33;;;1.17;;
27438;SDS011;14887;51.252;7.470;2022-07-03T13:10:54;1.90;;;1.40;;
27438;SDS011;14887;51.252;7.470;2022-07-03T13:13:24;2.50;;;1.23;;
27438;SDS011;14887;51.252;7.470;2022-07-03T13:15:50;8.63;;;1.53;;
27438;SDS011;14887;51.252;7.470;2022-07-03T13:18:16;1.93;;;1.20;;
27438;SDS011;14887;51.252;7.470;2022-07-03T13:20:42;1.40;;;1.30;;
27438;SDS011;14887;51.252;7.470;2022-07-03T13:23:08;3.23;;;1.20;;
27438;SDS011;14887;51.252;7.470;2022-07-03T13:25:35;2.13;;;1.60;;
27438;SDS011;14887;51.252;7.470;2022-07-03T13:28:08;1.30;;;1.20;;
27438;SDS011;14887;51.252;7.470;2022-07-03T13:30:35;3.73;;;1.40;;
27438;SDS011;14887;51.252;7.470;2022-07-03T13:33:02;1.97;;;1.73;;
27438;SDS011;14887;51.252;7.470;2022-07-03T13:35:28;1.50;;;1.40;;
27438;SDS011;14887;51.252;7.470;2022-07-03T13:37:55;3.20;;;1.40;;
27438;SDS011;14887;51.252;7.470;2022-07-03T13:40:20;1.37;;;1.27;;
27438;SDS011;14887;51.252;7.470;2022-07-03T13:42:46;2.90;;;1.43;;
27438;SDS011;14887;51.252;7.470;2022-07-03T13:45:12;4.67;;;1.50;;
27438;SDS011;14887;51.252;7.470;2022-07-03T13:47:37;3.20;;;1.73;;
27438;SDS011;14887;51.252;7.470;2022-07-03T13:50:03;2.10;;;1.33;;
27438;SDS011;14887;51.252;7.470;2022-07-03T13:52:29;9.97;;;1.70;;
27438;SDS011;14887;51.252;7.470;2022-07-03T13:54:55;6.17;;;1.50;;
27438;SDS011;14887;51.252;7.470;2022-07-03T13:57:20;4.23;;;1.60;;
27438;SDS011;14887;51.252;7.470;2022-07-03T13:59:46;2.23;;;1.27;;
27438;SDS011;14887;51.252;7.470;2022-07-03T14:02:13;2.77;;;1.53;;
27438;SDS011;14887;51.252;7.470;2022-07-03T14:04:39;2.10;;;1.20;;
27438;SDS011;14887;51.252;7.470;2022-07-03T14:07:04;2.30;;;1.63;;
27438;SDS011;14887;51.252;7.470;2022-07-03T14:09:30;3.57;;;1.53;;
27438;SDS011;14887;51.252;7.470;2022-07-03T14:11:55;4.43;;;1.20;;
27438;SDS011;14887;51.252;7.470;2022-07-03T14:14:21;6.13;;;1.00;;
27438;SDS011;14887;51.252;7.470;2022-07-03T14:16:46;2.60;;;1.27;;
27438;SDS011;14887;51.252;7.470;2022-07-03T14:19:12;3.40;;;1.30;;
27438;SDS011;14887;51.252;7.470;2022-07-03T14:21:38;3.50;;;1.60;;
27438;SDS011;14887;51.252;7.470;2022-07-03T14:24:03;3.07;;;1.43;;
27438;SDS011;14887;51.252;7.470;2022-07-03T14:26:29;7.70;;;1.67;;
27438;SDS011;14887;51.252;7.470;2022-07-03T14:29:13;2.83;;;1.43;;
27438;SDS011;14887;51.252;7.470;2022-07-03T14:31:57;3.63;;;1.90;;
27438;SDS011;14887;51.252;7.470;2022-07-03T14:34:41;5.27;;;1.87;;
27438;SDS011;14887;51.252;7.470;2022-07-03T14:37:07;1.47;;;1.33;;
27438;SDS011;14887;51.252;7.470;2022-07-03T14:39:33;2.10;;;1.33;;
27438;SDS011;14887;51.252;7.470;2022-07-03T14:41:59;3.37;;;1.40;;
27438;SDS011;14887;51.252;7.470;2022-07-03T14:44:25;4.07;;;2.40;;
27438;SDS011;14887;51.252;7.470;2022-07-03T14:46:53;5.37;;;2.03;;
27438;SDS011;14887;51.252;7.470;2022-07-03T14:49:19;4.77;;;1.60;;
27438;SDS011;14887;51.252;7.470;2022-07-03T14:51:45;2.10;;;1.70;;
27438;SDS011;14887;51.252;7.470;2022-07-03T14:54:11;3.40;;;3.10;;
27438;SDS011;14887;51.252;7.470;2022-07-03T14:56:42;6.00;;;5.03;;
27438;SDS011;14887;51.252;7.470;2022-07-03T14:59:15;4.70;;;2.87;;
27438;SDS011;14887;51.252;7.470;2022-07-03T15:02:07;5.80;;;2.00;;
27438;SDS011;14887;51.252;7.470;2022-07-03T15:07:39;2.30;;;1.57;;
27438;SDS011;14887;51.252;7.470;2022-07-03T15:10:13;2.20;;;2.10;;
27438;SDS011;14887;51.252;7.470;2022-07-03T15:12:43;4.83;;;3.10;;
27438;SDS011;14887;51.252;7.470;2022-07-03T15:15:13;3.20;;;1.57;;
27438;SDS011;14887;51.252;7.470;2022-07-03T15:17:40;1.43;;;1.27;;
27438;SDS011;14887;51.252;7.470;2022-07-03T15:20:07;1.77;;;1.47;;
27438;SDS011;14887;51.252;7.470;2022-07-03T15:22:40;1.80;;;1.27;;
27438;SDS011;14887;51.252;7.470;2022-07-03T15:25:08;2.50;;;0.93;;
27438;SDS011;14887;51.252;7.470;2022-07-03T15:27:34;1.60;;;1.37;;
27438;SDS011;14887;51.252;7.470;2022-07-03T15:30:00;1.97;;;1.20;;
27438;SDS011;14887;51.252;7.470;2022-07-03T15:32:26;1.63;;;1.40;;
27438;SDS011;14887;51.252;7.470;2022-07-03T15:34:52;1.63;;;1.50;;
27438;SDS011;14887;51.252;7.470;2022-07-03T15:40:03;3.80;;;1.33;;
27438;SDS011;14887;51.252;7.470;2022-07-03T15:45:03;2.20;;;1.00;;
27438;SDS011;14887;51.252;7.470;2022-07-03T15:50:31;1.10;;;0.90;;
27438;SDS011;14887;51.252;7.470;2022-07-03T15:53:04;7.13;;;1.10;;
27438;SDS011;14887;51.252;7.470;2022-07-03T15:55:32;1.37;;;1.20;;
27438;SDS011;14887;51.252;7.470;2022-07-03T15:58:04;1.80;;;1.00;;
27438;SDS011;14887;51.252;7.470;2022-07-03T16:00:37;3.93;;;1.23;;
27438;SDS011;14887;51.252;7.470;2022-07-03T16:03:18;1.77;;;1.17;;
27438;SDS011;14887;51.252;7.470;2022-07-03T16:05:47;2.20;;;1.30;;
27438;SDS011;14887;51.252;7.470;2022-07-03T16:08:13;2.40;;;1.03;;
27438;SDS011;14887;51.252;7.470;2022-07-03T16:10:41;3.40;;;1.40;;
27438;SDS011;14887;51.252;7.470;2022-07-03T16:13:07;1.30;;;1.20;;
27438;SDS011;14887;51.252;7.470;2022-07-03T16:15:37;4.07;;;1.40;;
27438;SDS011;14887;51.252;7.470;2022-07-03T16:18:05;2.17;;;1.40;;
27438;SDS011;14887;51.252;7.470;2022-07-03T16:20:32;1.80;;;1.00;;
27438;SDS011;14887;51.252;7.470;2022-07-03T16:23:03;3.43;;;1.33;;
27438;SDS011;14887;51.252;7.470;2022-07-03T16:25:30;4.10;;;0.90;;
27438;SDS011;14887;51.252;7.470;2022-07-03T16:27:58;2.03;;;1.40;;
27438;SDS011;14887;51.252;7.470;2022-07-03T16:30:29;5.97;;;1.70;;